sensor_id;sensor_type;location;lat;lon;timestamp;pressure;altitude;pressure_sealevel;temperature;humidity
62800;BME280;48842;51.046;13.796;2022-10-19T00:02:13;101403.59;;;16.25;72.06
62800;BME280;48842;51.046;13.796;2022-10-19T00:04:39;101406.25;;;16.23;71.97
62800;BME280;48842;51.046;13.796;2022-10-19T00:07:04;101400.09;;;16.21;71.90
62800;BME280;48842;51.046;13.796;2022-10-19T00:09:29;101399.19;;;16.20;71.87
62800;BME280;48842;51.046;13.796;2022-10-19T00:11:54;101411.53;;;16.20;71.69
62800;BME280;48842;51.046;13.796;2022-10-19T00:14:21;101400.97;;;16.18;71.82
62800;BME280;48842;51.046;13.796;2022-10-19T00:16:49;101406.25;;;16.15;71.75
62800;BME280;48842;51.046;13.796;2022-10-19T00:19:21;101402.72;;;16.13;71.72
62800;BME280;48842;51.046;13.796;2022-10-19T00:21:47;101407.16;;;16.11;71.54
62800;BME280;48842;51.046;13.796;2022-10-19T00:24:13;101415.94;;;16.10;71.50
62800;BME280;48842;51.046;13.796;2022-10-19T00:26:38;101408.03;;;16.07;71.33
62800;BME280;48842;51.046;13.796;2022-10-19T00:29:04;101410.69;;;16.04;71.42
62800;BME280;48842;51.046;13.796;2022-10-19T00:31:29;101407.16;;;16.02;71.25
62800;BME280;48842;51.046;13.796;2022-10-19T00:33:55;101412.44;;;15.97;71.16
62800;BME280;48842;51.046;13.796;2022-10-19T00:36:27;101416.84;;;15.94;71.20
62800;BME280;48842;51.046;13.796;2022-10-19T00:38:53;101413.34;;;15.92;71.24
62800;BME280;48842;51.046;13.796;2022-10-19T00:41:20;101413.31;;;15.90;71.13
62800;BME280;48842;51.046;13.796;2022-10-19T00:44:53;101415.97;;;15.87;70.94
62800;BME280;48842;51.046;13.796;2022-10-19T00:46:51;101409.81;;;15.85;70.92
62800;BME280;48842;51.046;13.796;2022-10-19T00:49:21;101415.97;;;15.84;70.90
62800;BME280;48842;51.046;13.796;2022-10-19T00:51:50;101426.53;;;15.82;70.76
62800;BME280;48842;51.046;13.796;2022-10-19T00:54:17;101412.47;;;15.79;70.67
62800;BME280;48842;51.046;13.796;2022-10-19T00:56:44;101415.94;;;15.76;70.76
62800;BME280;48842;51.046;13.796;2022-10-19T00:59:12;101420.38;;;15.74;70.60
62800;BME280;48842;51.046;13.796;2022-10-19T01:01:39;101418.59;;;15.71;70.46
62800;BME280;48842;51.046;13.796;2022-10-19T01:04:05;101415.97;;;15.70;70.45
62800;BME280;48842;51.046;13.796;2022-10-19T01:06:31;101415.06;;;15.68;70.51
62800;BME280;48842;51.046;13.796;2022-10-19T01:08:57;101411.56;;;15.63;70.64
62800;BME280;48842;51.046;13.796;2022-10-19T01:14:25;101408.91;;;15.55;70.32
62800;BME280;48842;51.046;13.796;2022-10-19T01:17:05;101407.16;;;15.51;70.36
62800;BME280;48842;51.046;13.796;2022-10-19T01:28:35;101400.06;;;15.34;70.12
62800;BME280;48842;51.046;13.796;2022-10-19T01:31:15;101399.19;;;15.31;70.12
62800;BME280;48842;51.046;13.796;2022-10-19T01:34:04;101402.69;;;15.27;70.08
62800;BME280;48842;51.046;13.796;2022-10-19T01:39:52;101395.63;;;15.19;69.94
62800;BME280;48842;51.046;13.796;2022-10-19T01:45:13;101394.75;;;15.11;69.81
62800;BME280;48842;51.046;13.796;2022-10-19T01:47:50;101393.84;;;15.09;69.88
62800;BME280;48842;51.046;13.796;2022-10-19T01:50:24;101394.72;;;15.07;69.91
62800;BME280;48842;51.046;13.796;2022-10-19T01:52:54;101400.00;;;15.05;69.99
62800;BME280;48842;51.046;13.796;2022-10-19T01:55:20;101401.75;;;15.01;69.83
62800;BME280;48842;51.046;13.796;2022-10-19T01:57:50;101402.63;;;14.97;69.74
62800;BME280;48842;51.046;13.796;2022-10-19T02:00:17;101412.31;;;14.95;69.88
62800;BME280;48842;51.046;13.796;2022-10-19T02:02:46;101409.66;;;14.94;69.91
62800;BME280;48842;51.046;13.796;2022-10-19T02:05:14;101408.75;;;14.89;69.95
62800;BME280;48842;51.046;13.796;2022-10-19T02:07:44;101414.88;;;14.84;70.06
62800;BME280;48842;51.046;13.796;2022-10-19T02:10:11;101413.16;;;14.83;70.18
62800;BME280;48842;51.046;13.796;2022-10-19T02:12:37;101400.81;;;14.82;70.32
62800;BME280;48842;51.046;13.796;2022-10-19T02:15:08;101399.06;;;14.84;70.30
62800;BME280;48842;51.046;13.796;2022-10-19T02:17:38;101400.84;;;14.86;70.27
62800;BME280;48842;51.046;13.796;2022-10-19T02:20:05;101405.25;;;14.85;70.30
62800;BME280;48842;51.046;13.796;2022-10-19T02:22:30;101399.06;;;14.83;70.27
62800;BME280;48842;51.046;13.796;2022-10-19T02:24:56;101398.19;;;14.82;70.08
62800;BME280;48842;51.046;13.796;2022-10-19T02:27:21;101394.66;;;14.80;70.22
62800;BME280;48842;51.046;13.796;2022-10-19T02:29:47;101400.81;;;14.79;70.06
62800;BME280;48842;51.046;13.796;2022-10-19T02:32:12;101399.91;;;14.77;70.01
62800;BME280;48842;51.046;13.796;2022-10-19T02:34:38;101392.00;;;14.74;69.86
62800;BME280;48842;51.046;13.796;2022-10-19T02:37:04;101398.13;;;14.73;70.01
62800;BME280;48842;51.046;13.796;2022-10-19T02:39:30;101396.38;;;14.72;69.99
62800;BME280;48842;51.046;13.796;2022-10-19T02:42:15;101394.63;;;14.70;69.73
62800;BME280;48842;51.046;13.796;2022-10-19T02:44:49;101400.75;;;14.67;69.85
62800;BME280;48842;51.046;13.796;2022-10-19T02:47:25;101398.09;;;14.65;70.10
62800;BME280;48842;51.046;13.796;2022-10-19T02:49:52;101407.78;;;14.66;70.03
62800;BME280;48842;51.046;13.796;2022-10-19T02:52:17;101399.00;;;14.66;70.04
62800;BME280;48842;51.046;13.796;2022-10-19T02:54:43;101400.75;;;14.65;69.98
62800;BME280;48842;51.046;13.796;2022-10-19T02:57:20;101407.78;;;14.62;69.92
62800;BME280;48842;51.046;13.796;2022-10-19T02:59:46;101415.66;;;14.60;69.93
62800;BME280;48842;51.046;13.796;2022-10-19T03:02:13;101413.00;;;14.60;69.86
62800;BME280;48842;51.046;13.796;2022-10-19T03:04:38;101401.56;;;14.58;69.92
62800;BME280;48842;51.046;13.796;2022-10-19T03:07:05;101395.41;;;14.56;69.84
62800;BME280;48842;51.046;13.796;2022-10-19T03:09:30;101398.91;;;14.57;69.94
62800;BME280;48842;51.046;13.796;2022-10-19T03:11:56;101400.69;;;14.58;69.68
62800;BME280;48842;51.046;13.796;2022-10-19T03:14:21;101396.28;;;14.55;69.74
62800;BME280;48842;51.046;13.796;2022-10-19T03:16:46;101395.41;;;14.55;69.85
62800;BME280;48842;51.046;13.796;2022-10-19T03:19:12;101390.13;;;14.55;69.73
62800;BME280;48842;51.046;13.796;2022-10-19T03:21:37;101392.78;;;14.56;69.79
62800;BME280;48842;51.046;13.796;2022-10-19T03:24:02;101382.22;;;14.55;69.85
62800;BME280;48842;51.046;13.796;2022-10-19T03:26:28;101384.84;;;14.56;69.98
62800;BME280;48842;51.046;13.796;2022-10-19T03:28:53;101385.72;;;14.54;70.00
62800;BME280;48842;51.046;13.796;2022-10-19T03:31:18;101380.44;;;14.54;69.98
62800;BME280;48842;51.046;13.796;2022-10-19T03:33:44;101383.94;;;14.53;69.91
62800;BME280;48842;51.046;13.796;2022-10-19T03:36:13;101383.06;;;14.51;69.83
62800;BME280;48842;51.046;13.796;2022-10-19T03:38:39;101386.56;;;14.49;69.81
62800;BME280;48842;51.046;13.796;2022-10-19T03:41:08;101391.84;;;14.49;69.96
62800;BME280;48842;51.046;13.796;2022-10-19T03:43:33;101399.75;;;14.49;69.72
62800;BME280;48842;51.046;13.796;2022-10-19T03:45:58;101399.75;;;14.51;69.72
62800;BME280;48842;51.046;13.796;2022-10-19T03:48:24;101405.94;;;14.52;69.75
62800;BME280;48842;51.046;13.796;2022-10-19T03:51:19;101407.66;;;14.49;69.63
62800;BME280;48842;51.046;13.796;2022-10-19T03:53:43;101413.78;;;14.47;69.54
62800;BME280;48842;51.046;13.796;2022-10-19T03:56:17;101415.56;;;14.45;69.80
62800;BME280;48842;51.046;13.796;2022-10-19T03:58:44;101410.28;;;14.45;69.82
62800;BME280;48842;51.046;13.796;2022-10-19T04:01:13;101419.06;;;14.45;69.70
62800;BME280;48842;51.046;13.796;2022-10-19T04:03:38;101413.78;;;14.47;69.63
62800;BME280;48842;51.046;13.796;2022-10-19T04:06:09;101416.44;;;14.47;69.81
62800;BME280;48842;51.046;13.796;2022-10-19T04:08:35;101417.34;;;14.47;69.57
62800;BME280;48842;51.046;13.796;2022-10-19T04:11:03;101417.34;;;14.47;69.52
62800;BME280;48842;51.046;13.796;2022-10-19T04:13:29;101419.06;;;14.47;69.62
62800;BME280;48842;51.046;13.796;2022-10-19T04:15:54;101415.56;;;14.45;69.32
62800;BME280;48842;51.046;13.796;2022-10-19T04:18:19;101430.50;;;14.44;69.46
62800;BME280;48842;51.046;13.796;2022-10-19T04:20:44;101426.13;;;14.48;69.19
62800;BME280;48842;51.046;13.796;2022-10-19T04:23:10;101429.63;;;14.47;68.95
62800;BME280;48842;51.046;13.796;2022-10-19T04:25:35;101426.09;;;14.45;68.86
62800;BME280;48842;51.046;13.796;2022-10-19T04:28:00;101430.50;;;14.44;68.97
62800;BME280;48842;51.046;13.796;2022-10-19T04:30:25;101429.59;;;14.42;68.90
62800;BME280;48842;51.046;13.796;2022-10-19T04:32:51;101426.97;;;14.42;68.90
62800;BME280;48842;51.046;13.796;2022-10-19T04:35:16;101429.59;;;14.42;68.76
62800;BME280;48842;51.046;13.796;2022-10-19T04:37:41;101421.69;;;14.42;68.78
62800;BME280;48842;51.046;13.796;2022-10-19T04:40:07;101418.19;;;14.42;68.71
62800;BME280;48842;51.046;13.796;2022-10-19T04:42:32;101424.31;;;14.41;68.50
62800;BME280;48842;51.046;13.796;2022-10-19T04:44:58;101426.94;;;14.39;68.59
62800;BME280;48842;51.046;13.796;2022-10-19T04:47:23;101426.06;;;14.34;68.56
62800;BME280;48842;51.046;13.796;2022-10-19T04:49:48;101431.31;;;14.31;68.58
62800;BME280;48842;51.046;13.796;2022-10-19T04:52:13;101427.78;;;14.30;68.45
62800;BME280;48842;51.046;13.796;2022-10-19T04:54:39;101437.44;;;14.30;68.31
62800;BME280;48842;51.046;13.796;2022-10-19T04:57:04;101436.53;;;14.26;68.38
62800;BME280;48842;51.046;13.796;2022-10-19T04:59:29;101434.78;;;14.22;68.29
62800;BME280;48842;51.046;13.796;2022-10-19T05:01:57;101433.00;;;14.21;68.45
62800;BME280;48842;51.046;13.796;2022-10-19T05:04:22;101435.63;;;14.20;68.35
62800;BME280;48842;51.046;13.796;2022-10-19T05:06:48;101432.09;;;14.19;68.32
62800;BME280;48842;51.046;13.796;2022-10-19T05:09:13;101434.72;;;14.18;68.23
62800;BME280;48842;51.046;13.796;2022-10-19T05:11:38;101440.88;;;14.17;68.43
62800;BME280;48842;51.046;13.796;2022-10-19T05:14:04;101434.69;;;14.16;68.46
62800;BME280;48842;51.046;13.796;2022-10-19T05:16:29;101430.31;;;14.13;68.36
62800;BME280;48842;51.046;13.796;2022-10-19T05:18:55;101439.09;;;14.16;68.46
62800;BME280;48842;51.046;13.796;2022-10-19T05:21:22;101440.84;;;14.12;68.41
62800;BME280;48842;51.046;13.796;2022-10-19T05:23:52;101432.03;;;14.08;68.41
62800;BME280;48842;51.046;13.796;2022-10-19T05:26:19;101440.78;;;14.07;68.36
62800;BME280;48842;51.046;13.796;2022-10-19T05:28:49;101436.41;;;14.05;68.63
62800;BME280;48842;51.046;13.796;2022-10-19T05:31:17;101444.31;;;14.06;68.44
62800;BME280;48842;51.046;13.796;2022-10-19T05:33:43;101439.94;;;14.08;68.46
62800;BME280;48842;51.046;13.796;2022-10-19T05:38:35;101448.72;;;14.10;68.45
62800;BME280;48842;51.046;13.796;2022-10-19T05:41:00;101447.84;;;14.08;68.33
62800;BME280;48842;51.046;13.796;2022-10-19T05:43:25;101448.69;;;14.04;68.56
62800;BME280;48842;51.046;13.796;2022-10-19T05:45:51;101449.56;;;14.03;68.49
62800;BME280;48842;51.046;13.796;2022-10-19T05:48:16;101452.16;;;14.00;68.46
62800;BME280;48842;51.046;13.796;2022-10-19T05:50:51;101451.28;;;14.01;68.75
62800;BME280;48842;51.046;13.796;2022-10-19T05:53:17;101458.34;;;14.02;68.66
62800;BME280;48842;51.046;13.796;2022-10-19T05:55:42;101458.34;;;14.02;68.44
62800;BME280;48842;51.046;13.796;2022-10-19T05:58:07;101458.34;;;14.02;68.52
62800;BME280;48842;51.046;13.796;2022-10-19T06:00:33;101458.31;;;14.01;68.47
62800;BME280;48842;51.046;13.796;2022-10-19T06:02:58;101452.13;;;13.95;68.54
62800;BME280;48842;51.046;13.796;2022-10-19T06:05:23;101472.31;;;13.95;68.82
62800;BME280;48842;51.046;13.796;2022-10-19T06:07:48;101465.28;;;13.94;68.58
62800;BME280;48842;51.046;13.796;2022-10-19T06:10:14;101460.03;;;13.97;68.75
62800;BME280;48842;51.046;13.796;2022-10-19T06:12:39;101466.22;;;14.01;68.82
62800;BME280;48842;51.046;13.796;2022-10-19T06:15:04;101468.88;;;14.02;68.63
62800;BME280;48842;51.046;13.796;2022-10-19T06:17:30;101457.44;;;14.02;68.66
62800;BME280;48842;51.046;13.796;2022-10-19T06:19:55;101461.84;;;14.03;68.55
62800;BME280;48842;51.046;13.796;2022-10-19T06:22:20;101467.94;;;13.99;68.36
62800;BME280;48842;51.046;13.796;2022-10-19T06:24:46;101461.81;;;14.01;68.66
62800;BME280;48842;51.046;13.796;2022-10-19T06:27:11;101457.41;;;13.99;68.28
62800;BME280;48842;51.046;13.796;2022-10-19T06:29:36;101465.31;;;14.00;68.07
62800;BME280;48842;51.046;13.796;2022-10-19T06:32:01;101461.81;;;14.01;68.04
62800;BME280;48842;51.046;13.796;2022-10-19T06:34:27;101461.81;;;13.98;68.03
62800;BME280;48842;51.046;13.796;2022-10-19T06:36:52;101472.31;;;13.95;67.87
62800;BME280;48842;51.046;13.796;2022-10-19T06:39:17;101474.94;;;13.95;67.93
62800;BME280;48842;51.046;13.796;2022-10-19T06:41:42;101478.44;;;13.94;67.74
62800;BME280;48842;51.046;13.796;2022-10-19T06:44:08;101476.72;;;13.96;67.76
62800;BME280;48842;51.046;13.796;2022-10-19T06:46:33;101478.47;;;13.97;68.05
62800;BME280;48842;51.046;13.796;2022-10-19T06:49:00;101477.63;;;14.01;67.97
62800;BME280;48842;51.046;13.796;2022-10-19T06:51:28;101486.44;;;14.03;67.81
62800;BME280;48842;51.046;13.796;2022-10-19T06:53:53;101482.06;;;14.04;67.88
62800;BME280;48842;51.046;13.796;2022-10-19T06:56:19;101486.47;;;14.06;67.81
62800;BME280;48842;51.046;13.796;2022-10-19T06:58:45;101484.75;;;14.11;67.65
62800;BME280;48842;51.046;13.796;2022-10-19T07:01:10;101488.28;;;14.13;67.57
62800;BME280;48842;51.046;13.796;2022-10-19T07:03:37;101481.28;;;14.16;67.61
62800;BME280;48842;51.046;13.796;2022-10-19T07:06:09;101482.16;;;14.18;67.37
62800;BME280;48842;51.046;13.796;2022-10-19T07:08:36;101485.72;;;14.21;67.40
62800;BME280;48842;51.046;13.796;2022-10-19T07:11:08;101496.28;;;14.26;67.57
62800;BME280;48842;51.046;13.796;2022-10-19T07:13:34;101493.69;;;14.32;67.42
62800;BME280;48842;51.046;13.796;2022-10-19T07:16:05;101491.97;;;14.37;67.33
62800;BME280;48842;51.046;13.796;2022-10-19T07:18:32;101501.69;;;14.43;67.00
62800;BME280;48842;51.046;13.796;2022-10-19T07:21:00;101504.31;;;14.44;66.78
62800;BME280;48842;51.046;13.796;2022-10-19T07:23:27;101506.06;;;14.45;66.30
62800;BME280;48842;51.046;13.796;2022-10-19T07:25:54;101509.63;;;14.47;66.32
62800;BME280;48842;51.046;13.796;2022-10-19T07:28:24;101509.63;;;14.47;65.92
62800;BME280;48842;51.046;13.796;2022-10-19T07:30:50;101512.25;;;14.46;65.29
62800;BME280;48842;51.046;13.796;2022-10-19T07:33:15;101507.81;;;14.43;65.19
62800;BME280;48842;51.046;13.796;2022-10-19T07:35:41;101518.34;;;14.40;64.79
62800;BME280;48842;51.046;13.796;2022-10-19T07:38:06;101511.31;;;14.39;64.97
62800;BME280;48842;51.046;13.796;2022-10-19T07:40:32;101516.56;;;14.36;64.99
62800;BME280;48842;51.046;13.796;2022-10-19T07:42:57;101520.97;;;14.39;65.20
62800;BME280;48842;51.046;13.796;2022-10-19T07:45:23;101514.84;;;14.41;65.15
62800;BME280;48842;51.046;13.796;2022-10-19T07:47:48;101518.41;;;14.48;65.08
62800;BME280;48842;51.046;13.796;2022-10-19T07:50:13;101526.31;;;14.48;64.23
62800;BME280;48842;51.046;13.796;2022-10-19T07:52:39;101520.16;;;14.47;64.26
62800;BME280;48842;51.046;13.796;2022-10-19T07:55:04;101521.97;;;14.52;64.41
62800;BME280;48842;51.046;13.796;2022-10-19T07:57:30;101526.34;;;14.54;64.43
62800;BME280;48842;51.046;13.796;2022-10-19T07:59:55;101515.78;;;14.54;64.02
62800;BME280;48842;51.046;13.796;2022-10-19T08:02:20;101523.69;;;14.53;64.15
62800;BME280;48842;51.046;13.796;2022-10-19T08:04:45;101524.59;;;14.50;63.71
62800;BME280;48842;51.046;13.796;2022-10-19T08:07:11;101523.69;;;14.51;63.80
62800;BME280;48842;51.046;13.796;2022-10-19T08:09:36;101523.69;;;14.53;63.78
62800;BME280;48842;51.046;13.796;2022-10-19T08:12:02;101528.09;;;14.49;63.50
62800;BME280;48842;51.046;13.796;2022-10-19T08:14:28;101535.13;;;14.50;63.67
62800;BME280;48842;51.046;13.796;2022-10-19T08:16:53;101528.94;;;14.48;63.72
62800;BME280;48842;51.046;13.796;2022-10-19T08:19:18;101533.38;;;14.51;63.80
62800;BME280;48842;51.046;13.796;2022-10-19T08:21:45;101541.28;;;14.54;63.84
62800;BME280;48842;51.046;13.796;2022-10-19T08:24:12;101538.66;;;14.55;63.84
62800;BME280;48842;51.046;13.796;2022-10-19T08:26:39;101541.31;;;14.57;63.61
62800;BME280;48842;51.046;13.796;2022-10-19T08:29:24;101540.44;;;14.53;63.48
62800;BME280;48842;51.046;13.796;2022-10-19T08:31:49;101541.28;;;14.54;63.43
62800;BME280;48842;51.046;13.796;2022-10-19T08:34:15;101550.09;;;14.56;63.57
62800;BME280;48842;51.046;13.796;2022-10-19T08:36:41;101548.34;;;14.55;63.42
62800;BME280;48842;51.046;13.796;2022-10-19T08:39:07;101544.75;;;14.46;63.22
62800;BME280;48842;51.046;13.796;2022-10-19T08:47:35;101543.06;;;14.53;63.53
62800;BME280;48842;51.046;13.796;2022-10-19T08:50:14;101539.50;;;14.51;63.36
62800;BME280;48842;51.046;13.796;2022-10-19T08:52:41;101541.28;;;14.54;63.25
62800;BME280;48842;51.046;13.796;2022-10-19T08:55:10;101531.69;;;14.59;63.42
62800;BME280;48842;51.046;13.796;2022-10-19T08:57:55;101541.44;;;14.66;63.42
62800;BME280;48842;51.046;13.796;2022-10-19T09:01:04;101537.06;;;14.74;63.54
62800;BME280;48842;51.046;13.796;2022-10-19T09:03:37;101532.72;;;14.79;63.32
62800;BME280;48842;51.046;13.796;2022-10-19T09:06:45;101531.81;;;14.82;62.91
62800;BME280;48842;51.046;13.796;2022-10-19T09:09:14;101530.09;;;14.86;63.40
62800;BME280;48842;51.046;13.796;2022-10-19T09:11:43;101534.53;;;14.90;63.33
62800;BME280;48842;51.046;13.796;2022-10-19T09:14:18;101529.25;;;14.87;62.99
62800;BME280;48842;51.046;13.796;2022-10-19T09:16:45;101536.25;;;14.88;63.04
62800;BME280;48842;51.046;13.796;2022-10-19T09:19:23;101534.53;;;14.91;62.91
62800;BME280;48842;51.046;13.796;2022-10-19T09:22:06;101534.53;;;14.93;62.49
62800;BME280;48842;51.046;13.796;2022-10-19T09:27:22;101530.16;;;14.98;62.36
62800;BME280;48842;51.046;13.796;2022-10-19T09:29:56;101528.44;;;15.03;62.18
62800;BME280;48842;51.046;13.796;2022-10-19T09:34:55;101530.22;;;15.06;61.79
62800;BME280;48842;51.046;13.796;2022-10-19T09:37:23;101528.44;;;15.01;61.45
62800;BME280;48842;51.046;13.796;2022-10-19T09:39:49;101531.94;;;15.02;61.70
62800;BME280;48842;51.046;13.796;2022-10-19T09:42:29;101536.34;;;15.03;61.16
62800;BME280;48842;51.046;13.796;2022-10-19T09:44:58;101534.56;;;14.99;60.49
62800;BME280;48842;51.046;13.796;2022-10-19T09:47:39;101524.84;;;14.93;60.30
62800;BME280;48842;51.046;13.796;2022-10-19T09:50:22;101533.69;;;14.95;59.85
62800;BME280;48842;51.046;13.796;2022-10-19T09:52:50;101533.69;;;14.98;60.51
62800;BME280;48842;51.046;13.796;2022-10-19T09:57:47;101535.50;;;15.10;60.59
62800;BME280;48842;51.046;13.796;2022-10-19T10:00:24;101526.72;;;15.11;60.11
62800;BME280;48842;51.046;13.796;2022-10-19T10:02:52;101529.38;;;15.13;60.05
62800;BME280;48842;51.046;13.796;2022-10-19T10:05:19;101537.25;;;15.08;60.20
62800;BME280;48842;51.046;13.796;2022-10-19T10:07:46;101537.25;;;15.08;60.14
62800;BME280;48842;51.046;13.796;2022-10-19T10:10:26;101536.34;;;15.03;58.17
62800;BME280;48842;51.046;13.796;2022-10-19T10:12:53;101536.38;;;15.08;59.75
62800;BME280;48842;51.046;13.796;2022-10-19T10:15:25;101535.50;;;15.10;59.50
62800;BME280;48842;51.046;13.796;2022-10-19T10:17:52;101543.44;;;15.13;59.50
62800;BME280;48842;51.046;13.796;2022-10-19T10:20:22;101539.03;;;15.09;58.10
62800;BME280;48842;51.046;13.796;2022-10-19T10:23:21;101545.22;;;15.13;57.90
62800;BME280;48842;51.046;13.796;2022-10-19T10:25:48;101540.81;;;15.15;58.39
62800;BME280;48842;51.046;13.796;2022-10-19T10:28:18;101547.81;;;15.10;57.54
62800;BME280;48842;51.046;13.796;2022-10-19T10:30:45;101539.88;;;15.07;57.30
62800;BME280;48842;51.046;13.796;2022-10-19T10:33:21;101539.88;;;15.05;56.40
62800;BME280;48842;51.046;13.796;2022-10-19T10:35:51;101540.72;;;14.98;55.63
62800;BME280;48842;51.046;13.796;2022-10-19T10:38:25;101532.78;;;14.96;55.11
62800;BME280;48842;51.046;13.796;2022-10-19T10:41:09;101542.47;;;14.94;55.58
62800;BME280;48842;51.046;13.796;2022-10-19T10:43:38;101540.69;;;14.95;56.19
62800;BME280;48842;51.046;13.796;2022-10-19T10:46:15;101538.06;;;14.95;56.33
62800;BME280;48842;51.046;13.796;2022-10-19T10:48:51;101541.59;;;14.97;56.35
62800;BME280;48842;51.046;13.796;2022-10-19T10:51:43;101538.06;;;14.99;56.08
62800;BME280;48842;51.046;13.796;2022-10-19T10:56:42;101541.59;;;14.97;55.72
62800;BME280;48842;51.046;13.796;2022-10-19T10:59:17;101539.84;;;14.99;55.51
62800;BME280;48842;51.046;13.796;2022-10-19T11:01:57;101536.34;;;15.00;55.16
62800;BME280;48842;51.046;13.796;2022-10-19T11:04:30;101538.06;;;14.95;54.27
62800;BME280;48842;51.046;13.796;2022-10-19T11:07:00;101540.69;;;14.93;54.45
62800;BME280;48842;51.046;13.796;2022-10-19T11:09:37;101546.88;;;14.94;54.57
62800;BME280;48842;51.046;13.796;2022-10-19T11:12:10;101548.66;;;15.01;54.95
62800;BME280;48842;51.046;13.796;2022-10-19T11:14:56;101547.78;;;15.08;54.89
62800;BME280;48842;51.046;13.796;2022-10-19T11:17:27;101553.13;;;15.16;55.03
62800;BME280;48842;51.046;13.796;2022-10-19T11:19:54;101549.59;;;15.17;53.73
62800;BME280;48842;51.046;13.796;2022-10-19T11:22:34;101549.66;;;15.23;53.92
62800;BME280;48842;51.046;13.796;2022-10-19T11:25:25;101549.66;;;15.26;54.01
62800;BME280;48842;51.046;13.796;2022-10-19T11:31:12;101555.81;;;15.22;51.77
62800;BME280;48842;51.046;13.796;2022-10-19T11:33:49;101549.56;;;15.08;51.52
62800;BME280;48842;51.046;13.796;2022-10-19T11:42:08;101542.47;;;14.94;51.47
62800;BME280;48842;51.046;13.796;2022-10-19T11:50:22;101547.75;;;14.97;50.58
62800;BME280;48842;51.046;13.796;2022-10-19T11:53:08;101539.84;;;14.97;51.43
62800;BME280;48842;51.046;13.796;2022-10-19T11:55:43;101540.72;;;14.99;51.76
62800;BME280;48842;51.046;13.796;2022-10-19T11:58:33;101536.34;;;14.97;49.16
62800;BME280;48842;51.046;13.796;2022-10-19T12:01:14;101531.94;;;15.00;50.96
62800;BME280;48842;51.046;13.796;2022-10-19T12:14:37;101511.75;;;15.09;50.46
62800;BME280;48842;51.046;13.796;2022-10-19T12:17:08;101516.13;;;15.10;50.11
62800;BME280;48842;51.046;13.796;2022-10-19T12:19:41;101512.63;;;15.09;49.81
62800;BME280;48842;51.046;13.796;2022-10-19T12:22:13;101518.81;;;15.13;49.75
62800;BME280;48842;51.046;13.796;2022-10-19T12:24:39;101510.91;;;15.16;49.92
62800;BME280;48842;51.046;13.796;2022-10-19T12:27:05;101515.28;;;15.18;49.53
62800;BME280;48842;51.046;13.796;2022-10-19T12:29:33;101499.50;;;15.22;49.41
62800;BME280;48842;51.046;13.796;2022-10-19T12:32:02;101510.91;;;15.21;48.83
62800;BME280;48842;51.046;13.796;2022-10-19T12:37:24;101516.19;;;15.19;48.14
62800;BME280;48842;51.046;13.796;2022-10-19T12:40:07;101511.78;;;15.18;47.04
62800;BME280;48842;51.046;13.796;2022-10-19T12:42:58;101504.72;;;15.17;46.88
62800;BME280;48842;51.046;13.796;2022-10-19T12:48:29;101500.38;;;15.22;48.23
62800;BME280;48842;51.046;13.796;2022-10-19T12:53:42;101500.38;;;15.24;47.57
62800;BME280;48842;51.046;13.796;2022-10-19T12:56:14;101503.88;;;15.24;48.28
62800;BME280;48842;51.046;13.796;2022-10-19T13:01:17;101499.44;;;15.15;47.45
62800;BME280;48842;51.046;13.796;2022-10-19T13:03:44;101504.72;;;15.12;47.14
62800;BME280;48842;51.046;13.796;2022-10-19T13:06:17;101495.91;;;15.10;47.07
62800;BME280;48842;51.046;13.796;2022-10-19T13:08:56;101499.44;;;15.12;47.64
62800;BME280;48842;51.046;13.796;2022-10-19T13:11:22;101495.94;;;15.16;48.00
62800;BME280;48842;51.046;13.796;2022-10-19T13:13:55;101492.44;;;15.16;47.89
62800;BME280;48842;51.046;13.796;2022-10-19T13:21:49;101485.38;;;15.19;47.83
62800;BME280;48842;51.046;13.796;2022-10-19T13:35:30;101480.13;;;15.26;48.71
62800;BME280;48842;51.046;13.796;2022-10-19T13:40:33;101477.53;;;15.29;49.14
62800;BME280;48842;51.046;13.796;2022-10-19T13:43:00;101479.25;;;15.30;49.37
62800;BME280;48842;51.046;13.796;2022-10-19T13:45:26;101492.47;;;15.34;49.73
62800;BME280;48842;51.046;13.796;2022-10-19T13:47:56;101479.28;;;15.36;49.41
62800;BME280;48842;51.046;13.796;2022-10-19T13:50:42;101483.69;;;15.34;48.91
62800;BME280;48842;51.046;13.796;2022-10-19T13:53:19;101488.97;;;15.34;49.44
62800;BME280;48842;51.046;13.796;2022-10-19T13:56:14;101487.19;;;15.30;49.30
62800;BME280;48842;51.046;13.796;2022-10-19T13:59:15;101478.41;;;15.32;49.67
62800;BME280;48842;51.046;13.796;2022-10-19T14:01:52;101482.81;;;15.35;49.53
62800;BME280;48842;51.046;13.796;2022-10-19T14:04:47;101483.69;;;15.37;49.61
62800;BME280;48842;51.046;13.796;2022-10-19T14:07:20;101469.63;;;15.38;49.36
62800;BME280;48842;51.046;13.796;2022-10-19T14:10:11;101468.72;;;15.36;48.77
62800;BME280;48842;51.046;13.796;2022-10-19T14:12:41;101466.06;;;15.30;48.61
62800;BME280;48842;51.046;13.796;2022-10-19T14:15:34;101466.91;;;15.19;48.04
62800;BME280;48842;51.046;13.796;2022-10-19T14:17:59;101464.28;;;15.23;49.06
62800;BME280;48842;51.046;13.796;2022-10-19T14:20:26;101461.66;;;15.27;49.21
62800;BME280;48842;51.046;13.796;2022-10-19T14:22:52;101464.31;;;15.35;49.37
62800;BME280;48842;51.046;13.796;2022-10-19T14:25:20;101457.28;;;15.40;49.15
62800;BME280;48842;51.046;13.796;2022-10-19T14:27:50;101452.91;;;15.42;49.13